Time;durP1;ratioP1;P1;durP2;ratioP2;P2;SDS_P1;SDS_P2;PMS_P1;PMS_P2;Temp;Humidity;BMP_temperature;BMP_pressure;BME280_temperature;BME280_humidity;BME280_pressure;Samples;Min_cycle;Max_cycle;Signal;HPM_P1;HPM_P2
2024/01/20 00:00:31;;;;;;;8.40;7.47;;;-2.30;57.10;;;;;;5062331;28;20296;-61
2024/01/20 00:02:58;;;;;;;9.57;8.20;;;-2.40;57.10;;;;;;5057733;28;20204;-61
2024/01/20 00:05:24;;;;;;;8.33;7.47;;;-2.60;57.10;;;;;;5052063;28;20225;-59
2024/01/20 00:07:51;;;;;;;8.33;7.00;;;-2.50;57.50;;;;;;5063744;28;20227;-61
2024/01/20 00:10:17;;;;;;;7.73;6.80;;;-2.40;56.70;;;;;;5041589;28;20283;-61
2024/01/20 00:12:44;;;;;;;8.00;7.30;;;-2.50;56.20;;;;;;5050823;28;20625;-61
2024/01/20 00:15:10;;;;;;;7.87;6.87;;;-2.80;56.90;;;;;;5047886;28;20582;-61
2024/01/20 00:17:37;;;;;;;9.47;8.10;;;-2.70;57.00;;;;;;5063190;28;20679;-58
2024/01/20 00:20:04;;;;;;;7.67;6.93;;;-2.60;56.50;;;;;;5059115;28;20208;-61
2024/01/20 00:22:30;;;;;;;6.73;6.13;;;-2.60;56.20;;;;;;5059195;28;20236;-61
2024/01/20 00:24:59;;;;;;;8.67;6.20;;;-2.70;55.40;;;;;;5055531;28;20678;-60
2024/01/20 00:27:25;;;;;;;7.63;6.40;;;-2.80;56.20;;;;;;5064255;28;20636;-59
2024/01/20 00:29:52;;;;;;;6.70;6.10;;;-2.70;55.90;;;;;;5047055;28;20271;-61
2024/01/20 00:32:18;;;;;;;6.73;6.00;;;-2.60;55.90;;;;;;5056839;28;20248;-61
2024/01/20 00:34:44;;;;;;;6.80;5.70;;;-2.60;55.20;;;;;;5063008;28;20252;-60
2024/01/20 00:37:11;;;;;;;6.67;5.87;;;-2.60;55.30;;;;;;5044180;28;20637;-61
2024/01/20 00:39:38;;;;;;;7.33;5.87;;;-2.80;54.90;;;;;;5049738;28;20260;-59
2024/01/20 00:42:04;;;;;;;7.93;6.43;;;-2.70;54.40;;;;;;5042527;28;20291;-60
2024/01/20 00:44:31;;;;;;;6.33;5.70;;;-2.70;54.30;;;;;;5052499;28;20244;-59
2024/01/20 00:46:57;;;;;;;7.40;6.33;;;-2.80;54.30;;;;;;5054887;28;20267;-60
2024/01/20 00:49:24;;;;;;;7.27;6.57;;;-2.70;54.30;;;;;;5059077;28;20754;-60
2024/01/20 00:51:50;;;;;;;6.57;5.97;;;-2.80;53.90;;;;;;5060480;28;20210;-61
2024/01/20 00:54:17;;;;;;;6.67;5.90;;;-2.90;54.30;;;;;;5061809;28;20654;-58
2024/01/20 00:56:44;;;;;;;6.00;5.27;;;-2.90;54.10;;;;;;5058867;28;20732;-60
2024/01/20 00:59:10;;;;;;;6.47;5.87;;;-2.80;53.90;;;;;;5063181;28;20209;-60
2024/01/20 01:01:37;;;;;;;6.73;6.03;;;-2.60;53.50;;;;;;5050555;28;20260;-59
2024/01/20 01:04:03;;;;;;;6.53;5.90;;;-2.60;53.10;;;;;;5062324;28;20659;-59
2024/01/20 01:06:30;;;;;;;7.30;5.57;;;-2.80;52.90;;;;;;5063655;28;20257;-60
2024/01/20 01:08:56;;;;;;;7.60;6.37;;;-2.70;52.80;;;;;;5058793;28;20237;-61
2024/01/20 01:11:23;;;;;;;8.63;6.20;;;-2.60;52.70;;;;;;5059750;28;20271;-61
2024/01/20 01:13:49;;;;;;;6.30;5.70;;;-2.60;52.30;;;;;;5055333;28;20227;-59
2024/01/20 01:16:16;;;;;;;6.57;5.37;;;-2.70;52.50;;;;;;5053793;28;20243;-59
2024/01/20 01:18:42;;;;;;;7.20;5.70;;;-2.70;52.70;;;;;;5052562;28;20206;-61
2024/01/20 01:21:09;;;;;;;7.40;6.37;;;-2.70;52.40;;;;;;5060363;28;20212;-60
2024/01/20 01:23:35;;;;;;;6.47;5.87;;;-2.80;52.60;;;;;;5059469;28;20348;-61
2024/01/20 01:26:02;;;;;;;6.23;5.63;;;-2.80;52.60;;;;;;5054914;28;20233;-60
2024/01/20 01:28:28;;;;;;;6.67;5.93;;;-3.00;52.80;;;;;;5062544;28;20338;-60
2024/01/20 01:30:55;;;;;;;5.47;5.03;;;-2.90;52.80;;;;;;5058887;28;20213;-61
2024/01/20 01:33:21;;;;;;;6.07;5.40;;;-2.80;51.80;;;;;;5046266;28;20319;-60
2024/01/20 01:35:48;;;;;;;6.33;5.00;;;-2.70;51.70;;;;;;5051908;28;20256;-61
2024/01/20 01:38:14;;;;;;;5.83;5.30;;;-2.80;52.00;;;;;;5054463;28;20206;-60
2024/01/20 01:40:41;;;;;;;5.73;5.23;;;-3.00;52.30;;;;;;5059146;28;20210;-61
2024/01/20 01:43:08;;;;;;;5.57;5.07;;;-2.90;52.40;;;;;;5059203;28;20244;-61
2024/01/20 01:45:34;;;;;;;6.60;5.33;;;-2.80;52.20;;;;;;5057820;28;20229;-61
2024/01/20 01:48:01;;;;;;;5.80;5.17;;;-2.80;52.30;;;;;;5057704;28;20202;-59
2024/01/20 01:50:28;;;;;;;5.90;5.30;;;-2.90;52.10;;;;;;5056882;28;20263;-61
2024/01/20 01:52:55;;;;;;;4.87;4.43;;;-2.90;51.60;;;;;;5039524;28;20242;-61
2024/01/20 01:55:21;;;;;;;5.97;5.47;;;-3.00;52.50;;;;;;5057619;28;20287;-61
2024/01/20 01:57:48;;;;;;;5.90;5.30;;;-3.00;52.30;;;;;;5051402;28;20209;-61
2024/01/20 02:00:14;;;;;;;5.43;5.03;;;-2.90;51.00;;;;;;5059084;28;20613;-61
2024/01/20 02:02:41;;;;;;;5.90;5.27;;;-2.90;51.50;;;;;;5057092;28;20210;-59
2024/01/20 02:05:07;;;;;;;6.37;5.23;;;-3.00;52.00;;;;;;5062337;28;20658;-60
2024/01/20 02:07:34;;;;;;;6.03;5.37;;;-2.90;52.40;;;;;;5048728;28;20209;-61
2024/01/20 02:10:00;;;;;;;6.30;5.07;;;-2.90;51.70;;;;;;5056463;28;20562;-60
2024/01/20 02:12:27;;;;;;;5.10;4.70;;;-3.00;50.70;;;;;;5056693;28;20217;-61
2024/01/20 02:14:53;;;;;;;5.37;4.80;;;-3.00;50.60;;;;;;5060251;28;20633;-61
2024/01/20 02:17:20;;;;;;;5.40;4.90;;;-3.10;51.40;;;;;;5062620;28;20216;-61
2024/01/20 02:19:46;;;;;;;5.03;4.63;;;-3.10;50.90;;;;;;5057560;28;20222;-61
2024/01/20 02:22:13;;;;;;;5.70;5.20;;;-3.10;51.00;;;;;;5058524;28;20314;-61
2024/01/20 02:24:40;;;;;;;5.00;4.50;;;-3.00;50.20;;;;;;5052643;28;20206;-60
2024/01/20 02:27:06;;;;;;;5.37;4.90;;;-3.10;50.20;;;;;;5048899;28;20326;-61
2024/01/20 02:29:32;;;;;;;6.63;5.17;;;-3.20;50.50;;;;;;5059318;28;20275;-59
2024/01/20 02:31:59;;;;;;;5.80;5.30;;;-3.00;50.30;;;;;;5055557;28;20719;-61
2024/01/20 02:34:27;;;;;;;6.00;4.87;;;-3.00;50.30;;;;;;5057919;28;20232;-61
2024/01/20 02:36:53;;;;;;;7.40;4.63;;;-3.00;50.40;;;;;;5059853;28;20240;-60
2024/01/20 02:39:19;;;;;;;4.77;4.37;;;-3.10;50.90;;;;;;5063642;28;20580;-61
2024/01/20 02:41:46;;;;;;;4.70;4.30;;;-3.00;50.50;;;;;;5066303;28;20212;-61
2024/01/20 02:44:12;;;;;;;4.67;4.30;;;-3.20;50.20;;;;;;5049577;28;20668;-61
2024/01/20 02:46:39;;;;;;;4.90;4.50;;;-3.20;50.70;;;;;;5066714;28;20724;-62
2024/01/20 02:49:05;;;;;;;5.30;4.80;;;-3.20;50.50;;;;;;5053342;28;20244;-61
2024/01/20 02:51:32;;;;;;;4.53;4.23;;;-3.20;50.60;;;;;;5052602;28;20227;-60
2024/01/20 02:53:59;;;;;;;5.37;4.97;;;-3.50;51.00;;;;;;5058404;28;20276;-61
2024/01/20 02:56:25;;;;;;;4.97;4.57;;;-3.70;51.80;;;;;;5060221;28;20360;-61
2024/01/20 02:58:52;;;;;;;4.73;4.33;;;-3.40;51.50;;;;;;5055008;28;20259;-58
2024/01/20 03:01:18;;;;;;;4.47;4.17;;;-3.50;50.30;;;;;;5065495;28;20209;-61
2024/01/20 03:03:45;;;;;;;4.27;3.97;;;-3.40;50.50;;;;;;5057578;28;20698;-61
2024/01/20 03:06:12;;;;;;;4.87;4.47;;;-3.50;51.00;;;;;;5049150;28;20302;-61
2024/01/20 03:08:38;;;;;;;4.13;3.83;;;-3.40;50.80;;;;;;5062277;28;20644;-61
2024/01/20 03:11:05;;;;;;;4.27;3.97;;;-3.40;50.40;;;;;;5063049;28;20238;-61
2024/01/20 03:13:31;;;;;;;4.60;4.20;;;-3.40;50.70;;;;;;5062129;28;20610;-61
2024/01/20 03:15:58;;;;;;;4.77;4.37;;;-3.30;51.00;;;;;;5063402;28;20784;-61
2024/01/20 03:18:24;;;;;;;4.67;4.27;;;-3.40;50.80;;;;;;5065332;28;20217;-60
2024/01/20 03:20:51;;;;;;;4.23;3.83;;;-3.60;51.20;;;;;;5055729;28;20239;-61
2024/01/20 03:23:17;;;;;;;4.67;4.03;;;-3.60;51.50;;;;;;5059330;28;20200;-61
2024/01/20 03:25:44;;;;;;;4.07;3.70;;;-3.60;51.50;;;;;;5066345;28;20769;-60
2024/01/20 03:28:10;;;;;;;4.27;3.97;;;-3.70;51.70;;;;;;5053798;28;20247;-60
2024/01/20 03:30:37;;;;;;;4.63;4.23;;;-3.70;52.60;;;;;;5063589;28;20209;-68
2024/01/20 03:33:03;;;;;;;4.20;3.90;;;-3.70;51.70;;;;;;5062335;28;20236;-60
2024/01/20 03:35:30;;;;;;;4.70;4.10;;;-4.00;53.00;;;;;;5057747;28;20735;-60
2024/01/20 03:37:57;;;;;;;4.77;4.33;;;-4.00;53.10;;;;;;5056894;28;20243;-60
2024/01/20 03:40:23;;;;;;;5.00;4.53;;;-3.80;53.40;;;;;;5056880;28;20206;-60
2024/01/20 03:42:50;;;;;;;4.53;4.13;;;-3.90;53.10;;;;;;5044705;28;20203;-59
2024/01/20 03:45:16;;;;;;;5.53;5.00;;;-3.80;53.70;;;;;;5047359;28;20709;-60
2024/01/20 03:47:43;;;;;;;6.20;5.20;;;-3.70;52.90;;;;;;5057438;28;20229;-61
2024/01/20 03:50:09;;;;;;;7.37;5.30;;;-3.90;52.60;;;;;;5060824;28;20201;-61
2024/01/20 03:52:36;;;;;;;7.47;4.60;;;-3.70;52.90;;;;;;5056815;28;20236;-60
2024/01/20 03:55:02;;;;;;;5.80;5.13;;;-3.50;52.40;;;;;;5063147;28;20221;-59
2024/01/20 03:57:29;;;;;;;10.40;5.20;;;-3.60;51.90;;;;;;5064612;28;20582;-61
2024/01/20 03:59:55;;;;;;;6.63;4.73;;;-3.90;52.60;;;;;;5061174;28;20237;-58
2024/01/20 04:02:22;;;;;;;6.00;5.23;;;-3.90;53.90;;;;;;5052941;28;20229;-60
2024/01/20 04:04:48;;;;;;;9.90;5.20;;;-3.60;53.10;;;;;;5051559;28;20644;-60
2024/01/20 04:07:15;;;;;;;8.43;5.97;;;-3.70;52.30;;;;;;5059966;28;20222;-61
2024/01/20 04:09:42;;;;;;;6.27;5.67;;;-3.80;53.60;;;;;;5053470;28;20680;-61
2024/01/20 04:12:08;;;;;;;5.80;5.23;;;-3.70;52.80;;;;;;5063284;28;20232;-61
2024/01/20 04:14:35;;;;;;;5.77;5.17;;;-3.80;53.40;;;;;;5057173;28;20230;-61
2024/01/20 04:17:01;;;;;;;5.40;4.77;;;-4.00;53.60;;;;;;5060348;28;20253;-61
2024/01/20 04:19:28;;;;;;;6.87;5.13;;;-3.90;54.10;;;;;;5051308;28;20227;-59
2024/01/20 04:21:54;;;;;;;6.07;4.77;;;-3.90;53.80;;;;;;5048062;28;20263;-61
2024/01/20 04:24:21;;;;;;;5.43;4.70;;;-3.80;53.40;;;;;;5063896;28;20241;-61
2024/01/20 04:26:47;;;;;;;5.37;4.83;;;-4.10;53.90;;;;;;5055686;28;20642;-60
2024/01/20 04:29:14;;;;;;;5.67;4.17;;;-4.10;54.50;;;;;;5063550;28;20206;-61
2024/01/20 04:31:40;;;;;;;5.43;5.03;;;-3.90;54.30;;;;;;5060067;28;20273;-57
2024/01/20 04:34:07;;;;;;;4.70;4.37;;;-3.70;52.80;;;;;;5062869;28;20703;-60
2024/01/20 04:36:33;;;;;;;5.57;5.17;;;-3.80;53.70;;;;;;5049241;28;20260;-60
2024/01/20 04:39:00;;;;;;;5.30;4.80;;;-4.00;54.30;;;;;;5038117;28;20202;-61
2024/01/20 04:41:26;;;;;;;6.07;5.47;;;-4.10;55.00;;;;;;5063917;28;20247;-59
2024/01/20 04:43:53;;;;;;;6.33;4.87;;;-3.90;55.20;;;;;;5061289;28;20202;-58
2024/01/20 04:46:19;;;;;;;5.20;4.80;;;-3.80;54.50;;;;;;5058919;28;20229;-60
2024/01/20 04:48:46;;;;;;;6.17;5.57;;;-3.80;54.40;;;;;;5060183;28;20278;-58
2024/01/20 04:51:12;;;;;;;5.17;4.77;;;-3.90;54.40;;;;;;5060287;28;20225;-60
2024/01/20 04:53:39;;;;;;;7.00;5.37;;;-4.20;55.70;;;;;;5033252;28;20298;-61
2024/01/20 04:56:05;;;;;;;6.03;5.43;;;-4.00;55.60;;;;;;5056442;28;20237;-61
2024/01/20 04:58:32;;;;;;;6.93;6.23;;;-4.20;55.70;;;;;;5052893;28;20209;-60
2024/01/20 05:00:58;;;;;;;6.73;6.07;;;-4.30;56.70;;;;;;5061574;28;20698;-61
2024/01/20 05:03:25;;;;;;;7.13;6.43;;;-4.30;56.50;;;;;;5059601;28;20214;-61
2024/01/20 05:05:51;;;;;;;7.57;6.60;;;-4.20;56.60;;;;;;5060721;28;20222;-59
2024/01/20 05:08:18;;;;;;;6.87;6.27;;;-4.00;55.90;;;;;;5058404;28;20284;-60
2024/01/20 05:10:45;;;;;;;6.90;6.30;;;-4.10;55.80;;;;;;5045770;28;20248;-59
2024/01/20 05:13:11;;;;;;;9.00;7.17;;;-4.00;55.90;;;;;;5051487;28;20551;-61
2024/01/20 05:15:39;;;;;;;7.60;6.87;;;-4.20;55.70;;;;;;5057620;28;20705;-60
2024/01/20 05:18:05;;;;;;;8.27;6.87;;;-4.30;56.90;;;;;;5060025;28;20201;-61
2024/01/20 05:20:32;;;;;;;8.93;7.50;;;-4.10;56.30;;;;;;5059085;28;20209;-61
2024/01/20 05:22:58;;;;;;;9.27;7.10;;;-4.10;55.80;;;;;;5052004;28;20221;-58
2024/01/20 05:25:25;;;;;;;8.27;6.60;;;-4.20;57.10;;;;;;5061076;28;20275;-61
2024/01/20 05:27:51;;;;;;;8.67;7.77;;;-4.10;56.80;;;;;;5069505;28;20250;-61
2024/01/20 05:30:18;;;;;;;8.77;7.87;;;-4.20;56.40;;;;;;5062911;28;20252;-61
2024/01/20 05:32:44;;;;;;;9.80;8.13;;;-4.30;56.40;;;;;;5060435;28;20206;-61
2024/01/20 05:35:11;;;;;;;9.13;7.90;;;-4.50;58.20;;;;;;5051595;28;20229;-59
2024/01/20 05:37:37;;;;;;;10.13;7.60;;;-4.40;57.40;;;;;;5059916;28;20252;-60
2024/01/20 05:40:04;;;;;;;9.97;7.77;;;-4.20;57.00;;;;;;5049622;28;20660;-60
2024/01/20 05:42:30;;;;;;;9.33;7.57;;;-4.50;56.90;;;;;;5054667;28;20668;-61
2024/01/20 05:44:56;;;;;;;9.63;8.60;;;-4.40;57.40;;;;;;5062044;28;20209;-61
2024/01/20 05:47:22;;;;;;;9.00;8.10;;;-4.30;57.60;;;;;;5060059;28;20259;-61
2024/01/20 05:49:49;;;;;;;10.93;8.07;;;-4.30;57.40;;;;;;5060235;28;20674;-61
2024/01/20 05:52:15;;;;;;;10.97;8.37;;;-4.10;56.80;;;;;;5063062;28;20217;-61
2024/01/20 05:54:42;;;;;;;8.10;7.23;;;-4.20;56.60;;;;;;5063081;28;20321;-60
2024/01/20 05:57:09;;;;;;;9.23;8.30;;;-4.10;56.80;;;;;;5049698;28;20249;-60
2024/01/20 05:59:35;;;;;;;8.67;7.77;;;-4.00;55.90;;;;;;5057618;28;20209;-60
2024/01/20 06:02:02;;;;;;;9.97;8.23;;;-4.00;56.00;;;;;;5057515;28;20233;-61
2024/01/20 06:04:28;;;;;;;10.67;8.93;;;-4.10;56.60;;;;;;5062780;28;20237;-60
2024/01/20 06:06:55;;;;;;;12.07;8.50;;;-4.10;57.10;;;;;;5061474;28;20294;-60
2024/01/20 06:09:21;;;;;;;10.07;8.43;;;-4.10;57.00;;;;;;5059318;28;20201;-64
2024/01/20 06:11:48;;;;;;;9.27;7.60;;;-4.10;56.60;;;;;;5060103;28;20587;-61
2024/01/20 06:14:15;;;;;;;9.97;8.60;;;-4.00;56.00;;;;;;5054990;28;20683;-60
2024/01/20 06:16:41;;;;;;;6.47;5.87;;;-4.10;56.30;;;;;;5058979;28;20221;-59
2024/01/20 06:19:08;;;;;;;6.87;6.03;;;-4.10;55.80;;;;;;5066404;28;20218;-61
2024/01/20 06:21:34;;;;;;;6.57;5.87;;;-4.10;55.70;;;;;;5057451;28;20328;-61
2024/01/20 06:24:01;;;;;;;7.00;6.30;;;-4.00;55.60;;;;;;5048728;28;20202;-60
2024/01/20 06:26:27;;;;;;;7.70;5.40;;;-4.00;55.90;;;;;;5063613;28;20276;-61
2024/01/20 06:28:54;;;;;;;5.30;4.80;;;-3.90;54.80;;;;;;5064195;28;20685;-61
2024/01/20 06:31:21;;;;;;;5.70;5.10;;;-4.00;54.20;;;;;;5067265;28;20209;-61
2024/01/20 06:33:47;;;;;;;4.67;4.27;;;-4.00;54.20;;;;;;5058411;28;20267;-60
2024/01/20 06:36:14;;;;;;;5.57;4.47;;;-4.00;54.10;;;;;;5065351;28;20236;-60
2024/01/20 06:38:40;;;;;;;6.30;4.83;;;-3.90;53.50;;;;;;5062705;28;20673;-61
2024/01/20 06:41:07;;;;;;;5.00;4.50;;;-3.80;52.70;;;;;;5048740;28;20240;-60
2024/01/20 06:43:33;;;;;;;7.03;5.13;;;-3.40;84.70;;;;;;5057597;28;20672;-61
2024/01/20 06:46:00;;;;;;;4.73;4.33;;;-3.80;52.20;;;;;;5061685;28;20254;-61
2024/01/20 06:48:32;;;;;;;5.03;4.63;;;-4.00;55.00;;;;;;5066464;28;20201;-60
2024/01/20 06:50:59;;;;;;;5.93;4.83;;;-4.20;53.00;;;;;;5057613;28;20241;-60
2024/01/20 06:53:26;;;;;;;5.50;5.00;;;-4.10;52.50;;;;;;5062024;28;20271;-59
2024/01/20 06:55:53;;;;;;;5.27;4.57;;;-4.10;52.60;;;;;;5057977;28;20692;-61
2024/01/20 06:58:19;;;;;;;4.80;4.40;;;-4.00;51.80;;;;;;5060189;28;20274;-60
2024/01/20 07:00:46;;;;;;;5.77;4.90;;;-4.10;51.50;;;;;;5057185;28;20870;-61
2024/01/20 07:03:12;;;;;;;5.80;5.20;;;-4.20;51.50;;;;;;5055659;28;20256;-61
2024/01/20 07:05:39;;;;;;;4.60;4.20;;;-4.20;51.60;;;;;;5043733;28;20573;-61
2024/01/20 07:08:05;;;;;;;4.70;4.30;;;-4.00;51.60;;;;;;5051540;28;20264;-60
2024/01/20 07:10:32;;;;;;;5.43;4.93;;;-4.10;51.50;;;;;;5048109;28;20205;-61
2024/01/20 07:12:58;;;;;;;6.77;4.33;;;-4.10;51.50;;;;;;5049001;28;20734;-61
2024/01/20 07:15:25;;;;;;;5.13;3.93;;;-4.00;51.50;;;;;;5047487;28;20298;-61
2024/01/20 07:17:51;;;;;;;3.97;3.63;;;-3.90;49.90;;;;;;5051527;28;20681;-61
2024/01/20 07:20:18;;;;;;;4.00;3.60;;;-4.00;48.90;;;;;;5050951;28;20229;-59
2024/01/20 07:22:44;;;;;;;3.63;3.30;;;-3.90;48.90;;;;;;5042455;28;20743;-61
2024/01/20 07:25:11;;;;;;;4.70;4.00;;;-3.90;72.30;;;;;;5052409;28;20251;-61
2024/01/20 07:27:37;;;;;;;3.70;3.40;;;-4.00;73.40;;;;;;5051504;28;20653;-63
2024/01/20 07:30:04;;;;;;;4.70;4.40;;;-3.90;73.10;;;;;;5054672;28;20206;-61
2024/01/20 07:32:33;;;;;;;6.97;4.40;;;;;;;;;;5057630;28;20676;-61
2024/01/20 07:35:00;;;;;;;3.60;3.30;;;-4.00;66.00;;;;;;5057555;28;20217;-61
2024/01/20 07:37:26;;;;;;;3.70;3.50;;;-4.10;57.30;;;;;;5047837;28;20711;-59
2024/01/20 07:39:53;;;;;;;6.83;3.73;;;-4.10;65.30;;;;;;5049132;28;20290;-61
2024/01/20 07:42:20;;;;;;;4.30;3.33;;;-4.20;52.10;;;;;;5061963;28;20212;-59
2024/01/20 07:44:46;;;;;;;4.43;3.57;;;-4.10;51.80;;;;;;5049915;28;20214;-61
2024/01/20 07:47:15;;;;;;;4.97;4.30;;;-3.90;51.90;;;;;;5063001;28;20209;-58
2024/01/20 07:49:41;;;;;;;4.03;3.73;;;-4.10;51.40;;;;;;5047481;28;20236;-61
2024/01/20 07:52:08;;;;;;;5.17;3.90;;;-4.20;51.80;;;;;;5041388;28;20301;-60
2024/01/20 07:54:35;;;;;;;8.80;4.13;;;-4.20;51.30;;;;;;5059617;28;20317;-59
2024/01/20 07:57:01;;;;;;;6.47;4.03;;;-4.10;51.30;;;;;;5055325;28;20217;-60
2024/01/20 07:59:29;;;;;;;4.93;3.73;;;-4.10;51.50;;;;;;5062375;28;20614;-59
2024/01/20 08:01:55;;;;;;;7.33;4.40;;;-4.00;51.60;;;;;;5052632;28;20631;-59
2024/01/20 08:04:22;;;;;;;4.40;4.00;;;-4.00;51.60;;;;;;5059650;28;20226;-59
2024/01/20 08:06:48;;;;;;;4.87;4.00;;;-4.00;51.70;;;;;;5050147;28;20287;-57
2024/01/20 08:09:15;;;;;;;4.30;3.93;;;-4.20;52.00;;;;;;5032919;28;20237;-57
2024/01/20 08:11:41;;;;;;;6.00;4.53;;;-3.90;51.90;;;;;;5048078;28;20627;-60
2024/01/20 08:14:08;;;;;;;5.63;5.20;;;-3.90;51.70;;;;;;5062164;28;20269;-59
2024/01/20 08:16:35;;;;;;;4.73;4.43;;;-3.70;51.40;;;;;;5049938;28;20312;-58
2024/01/20 08:19:01;;;;;;;4.47;4.13;;;-3.70;51.30;;;;;;5058139;28;20259;-59
2024/01/20 08:21:28;;;;;;;6.80;4.40;;;-3.70;51.70;;;;;;5052653;28;20263;-59
2024/01/20 08:23:55;;;;;;;3.97;3.53;;;-3.50;51.50;;;;;;5052512;28;20202;-60
2024/01/20 08:26:22;;;;;;;4.50;4.00;;;-3.60;51.90;;;;;;5052385;28;20229;-60
2024/01/20 08:28:48;;;;;;;4.60;3.60;;;-3.50;52.10;;;;;;5044018;28;20503;-60
2024/01/20 08:31:15;;;;;;;4.47;3.60;;;-3.30;52.50;;;;;;5054306;28;20272;-60
2024/01/20 08:33:42;;;;;;;6.57;3.97;;;-3.30;52.50;;;;;;5026877;28;20297;-60
2024/01/20 08:36:08;;;;;;;4.80;4.33;;;-3.20;52.60;;;;;;5061377;28;20232;-60
2024/01/20 08:38:35;;;;;;;6.47;4.33;;;-3.00;53.50;;;;;;5060435;28;20664;-61
2024/01/20 08:41:01;;;;;;;5.13;3.87;;;-3.00;56.10;;;;;;5071490;28;20251;-59
2024/01/20 08:43:28;;;;;;;4.70;4.30;;;-2.90;66.60;;;;;;5049485;28;20232;-59
2024/01/20 08:45:55;;;;;;;4.73;3.97;;;;;;;;;;5055145;28;20241;-60
2024/01/20 08:48:22;;;;;;;3.90;3.50;;;-2.50;45.90;;;;;;5050675;28;20477;-60
2024/01/20 08:50:49;;;;;;;8.77;4.50;;;-2.00;45.40;;;;;;5054397;28;20206;-61
2024/01/20 08:53:16;;;;;;;4.20;3.80;;;-1.30;53.90;;;;;;5068659;28;20233;-56
2024/01/20 08:55:42;;;;;;;4.87;3.80;;;-0.80;43.50;;;;;;5050633;28;20785;-57
2024/01/20 08:58:09;;;;;;;4.53;3.63;;;;;;;;;;5051988;28;20306;-60
2024/01/20 09:00:36;;;;;;;6.33;3.53;;;-0.40;70.30;;;;;;5066488;28;20253;-59
2024/01/20 09:03:02;;;;;;;4.53;4.13;;;-0.10;41.10;;;;;;5041617;28;20727;-60
2024/01/20 09:05:29;;;;;;;6.63;4.43;;;0.10;40.50;;;;;;5059989;28;20232;-60
2024/01/20 09:07:56;;;;;;;3.87;3.53;;;0.40;40.80;;;;;;5050283;28;20267;-60
2024/01/20 09:10:22;;;;;;;5.00;4.00;;;0.50;39.80;;;;;;5054707;28;20225;-60
2024/01/20 09:12:49;;;;;;;11.10;3.67;;;0.70;39.90;;;;;;5056128;28;20250;-57
2024/01/20 09:15:15;;;;;;;4.50;4.10;;;0.80;38.80;;;;;;5054409;28;20225;-59
2024/01/20 09:17:42;;;;;;;4.43;3.67;;;1.00;38.80;;;;;;5063514;28;20212;-60
2024/01/20 09:20:08;;;;;;;4.57;4.17;;;1.00;38.60;;;;;;5048846;28;20313;-60
2024/01/20 09:22:35;;;;;;;4.40;3.47;;;1.20;38.20;;;;;;5048145;28;20247;-61
2024/01/20 09:25:01;;;;;;;5.67;3.80;;;1.50;37.30;;;;;;5065090;28;20206;-58
2024/01/20 09:27:28;;;;;;;7.53;4.23;;;1.60;37.60;;;;;;5062975;28;20243;-60
2024/01/20 09:29:55;;;;;;;4.13;3.40;;;1.50;38.50;;;;;;5062458;28;20579;-60
2024/01/20 09:32:21;;;;;;;5.10;3.80;;;1.60;36.30;;;;;;5066314;28;20674;-57
2024/01/20 09:34:48;;;;;;;6.67;4.00;;;1.60;37.60;;;;;;5059501;28;20260;-59
2024/01/20 09:37:14;;;;;;;6.27;3.47;;;2.00;36.40;;;;;;5052471;28;20238;-58
2024/01/20 09:39:41;;;;;;;6.20;3.80;;;2.20;36.10;;;;;;5046491;28;20206;-59
2024/01/20 09:42:07;;;;;;;6.90;4.13;;;2.30;36.30;;;;;;5055327;28;20638;-59
2024/01/20 09:44:34;;;;;;;4.60;4.20;;;2.50;36.00;;;;;;5056766;28;20214;-59
2024/01/20 09:47:00;;;;;;;4.53;4.03;;;2.50;35.20;;;;;;5068743;28;20255;-58
2024/01/20 09:49:27;;;;;;;5.70;4.30;;;2.50;35.00;;;;;;5065495;28;20272;-59
2024/01/20 09:51:53;;;;;;;4.30;3.90;;;2.90;35.00;;;;;;5074988;28;20211;-59
2024/01/20 09:54:20;;;;;;;4.53;3.80;;;3.10;33.90;;;;;;5070655;28;20685;-59
2024/01/20 09:56:46;;;;;;;5.07;4.30;;;3.10;34.20;;;;;;5062959;28;20244;-59
2024/01/20 09:59:13;;;;;;;6.33;4.37;;;3.20;34.20;;;;;;5048472;28;20238;-56
2024/01/20 10:01:40;;;;;;;4.30;3.90;;;3.40;33.90;;;;;;5059662;28;20299;-59
2024/01/20 10:04:06;;;;;;;4.70;4.27;;;3.50;32.80;;;;;;5065869;28;20216;-59
2024/01/20 10:06:33;;;;;;;5.13;4.10;;;3.50;33.10;;;;;;5066764;28;20266;-59
2024/01/20 10:08:59;;;;;;;6.27;4.03;;;3.80;32.60;;;;;;5064554;28;20203;-58
2024/01/20 10:11:26;;;;;;;5.60;4.40;;;4.00;32.50;;;;;;5068547;28;20663;-59
2024/01/20 10:13:52;;;;;;;6.73;4.50;;;4.20;32.70;;;;;;5074600;28;20212;-59
2024/01/20 10:16:20;;;;;;;6.17;3.73;;;4.20;31.80;;;;;;5046931;28;20253;-59
2024/01/20 10:18:46;;;;;;;6.37;4.47;;;4.50;31.30;;;;;;5068188;28;20672;-59
2024/01/20 10:21:13;;;;;;;3.90;3.60;;;4.60;31.10;;;;;;5063151;28;20262;-59
2024/01/20 10:23:39;;;;;;;5.43;4.53;;;4.50;30.60;;;;;;5070368;28;20212;-59
2024/01/20 10:26:06;;;;;;;4.57;3.90;;;4.40;30.90;;;;;;5066266;28;20236;-58
2024/01/20 10:28:32;;;;;;;4.20;3.80;;;4.60;30.50;;;;;;5074875;28;20200;-59
2024/01/20 10:30:59;;;;;;;6.13;4.83;;;4.80;30.60;;;;;;5059591;28;20221;-58
2024/01/20 10:33:25;;;;;;;4.97;4.53;;;4.80;29.90;;;;;;5050309;28;20699;-59
2024/01/20 10:35:52;;;;;;;5.53;3.80;;;4.90;29.50;;;;;;5057525;28;20637;-59
2024/01/20 10:38:19;;;;;;;5.27;3.87;;;4.90;28.30;;;;;;5027839;28;20262;-58
2024/01/20 10:40:47;;;;;;;5.57;4.20;;;4.80;28.50;;;;;;5042647;28;20212;-59
2024/01/20 10:43:13;;;;;;;6.23;3.97;;;5.20;28.50;;;;;;5042582;28;20199;-60
2024/01/20 10:45:40;;;;;;;4.67;3.80;;;5.20;28.30;;;;;;5063488;28;20219;-59
2024/01/20 10:48:06;;;;;;;5.00;4.03;;;5.40;28.30;;;;;;5048321;28;20557;-59
2024/01/20 10:50:33;;;;;;;4.10;3.47;;;5.40;28.30;;;;;;5045020;28;20335;-60
2024/01/20 10:52:59;;;;;;;5.70;3.57;;;5.60;27.30;;;;;;5049830;28;20219;-59
2024/01/20 10:55:26;;;;;;;4.57;4.10;;;5.40;27.30;;;;;;5042163;28;20269;-59
2024/01/20 10:57:52;;;;;;;3.90;3.27;;;5.50;28.00;;;;;;5043533;28;20208;-59
2024/01/20 11:00:19;;;;;;;5.07;3.40;;;5.70;28.20;;;;;;5046698;28;20250;-60
2024/01/20 11:02:45;;;;;;;5.03;3.97;;;5.90;27.30;;;;;;5028067;28;20283;-58
2024/01/20 11:05:12;;;;;;;4.77;3.50;;;5.90;27.70;;;;;;5048196;28;20686;-59
2024/01/20 11:07:39;;;;;;;4.30;3.43;;;5.90;26.30;;;;;;5049968;28;20201;-60
2024/01/20 11:10:05;;;;;;;4.10;3.43;;;5.40;26.10;;;;;;5052829;28;20410;-60
2024/01/20 11:12:32;;;;;;;3.93;3.63;;;5.60;26.50;;;;;;5051172;28;20214;-59
2024/01/20 11:14:59;;;;;;;3.90;3.50;;;5.80;26.50;;;;;;5061520;28;20258;-58
2024/01/20 11:17:26;;;;;;;4.93;3.63;;;5.90;26.20;;;;;;5051177;28;20204;-57
2024/01/20 11:19:52;;;;;;;3.93;3.50;;;6.00;27.00;;;;;;5054456;28;20216;-59
2024/01/20 11:22:18;;;;;;;3.87;3.20;;;6.00;26.80;;;;;;5056588;28;20262;-58
2024/01/20 11:24:45;;;;;;;5.00;3.60;;;6.30;27.40;;;;;;5055367;28;20241;-58
2024/01/20 11:27:11;;;;;;;4.67;3.83;;;6.40;26.20;;;;;;5050594;28;20250;-59
2024/01/20 11:29:38;;;;;;;3.80;3.40;;;6.20;26.90;;;;;;5056763;28;20709;-58
2024/01/20 11:32:05;;;;;;;6.87;3.40;;;6.00;26.70;;;;;;5054483;28;20208;-59
2024/01/20 11:34:32;;;;;;;6.70;3.57;;;6.40;26.80;;;;;;5057652;28;20205;-59
2024/01/20 11:36:58;;;;;;;3.57;3.30;;;6.40;25.70;;;;;;5048540;28;20320;-55
2024/01/20 11:39:25;;;;;;;3.50;3.20;;;6.60;25.50;;;;;;5051447;28;20681;-59
2024/01/20 11:41:51;;;;;;;5.73;3.40;;;6.80;25.40;;;;;;5058805;28;20206;-59
2024/01/20 11:44:18;;;;;;;5.90;4.00;;;6.70;25.40;;;;;;5058695;28;20240;-58
2024/01/20 11:46:44;;;;;;;5.80;3.60;;;6.50;25.30;;;;;;5070721;28;20221;-59
2024/01/20 11:49:11;;;;;;;7.97;3.60;;;6.60;25.30;;;;;;5046734;28;20210;-58
2024/01/20 11:51:37;;;;;;;3.63;3.17;;;7.10;25.70;;;;;;5044800;28;20213;-59
2024/01/20 11:54:04;;;;;;;6.63;3.60;;;7.10;26.10;;;;;;5047368;28;20240;-60
2024/01/20 11:56:30;;;;;;;4.83;3.53;;;7.00;25.60;;;;;;5049190;28;20321;-57
2024/01/20 11:58:57;;;;;;;3.80;3.40;;;6.90;25.50;;;;;;5047496;28;20237;-58
2024/01/20 12:01:23;;;;;;;4.73;3.90;;;7.10;25.60;;;;;;5046196;28;20371;-60
2024/01/20 12:03:50;;;;;;;5.07;3.37;;;7.20;25.40;;;;;;5045042;28;20657;-59
2024/01/20 12:06:16;;;;;;;6.63;3.70;;;6.90;25.20;;;;;;5072317;28;20593;-59
2024/01/20 12:08:44;;;;;;;4.20;3.80;;;7.00;26.10;;;;;;5056933;28;20632;-60
2024/01/20 12:11:11;;;;;;;4.47;3.80;;;7.10;26.00;;;;;;5054034;28;20256;-61
2024/01/20 12:13:37;;;;;;;6.93;4.60;;;6.30;25.20;;;;;;5058711;28;20211;-62
2024/01/20 12:16:04;;;;;;;4.83;3.27;;;6.30;26.20;;;;;;5049503;28;20225;-62
2024/01/20 12:18:30;;;;;;;3.97;3.63;;;6.30;26.50;;;;;;5048723;28;20288;-59
2024/01/20 12:20:58;;;;;;;5.50;3.33;;;6.30;26.40;;;;;;5050684;28;20846;-59
2024/01/20 12:23:24;;;;;;;2.63;2.43;;;6.30;26.20;;;;;;5042265;28;20213;-59
2024/01/20 12:25:51;;;;;;;4.60;2.93;;;6.40;25.20;;;;;;5060300;28;20228;-59
2024/01/20 12:28:18;;;;;;;2.73;2.53;;;6.30;26.10;;;;;;5052119;28;20687;-59
2024/01/20 12:30:44;;;;;;;2.83;2.60;;;6.20;25.00;;;;;;5043459;28;20272;-58
2024/01/20 12:33:11;;;;;;;5.17;2.90;;;6.10;25.00;;;;;;5053932;28;20206;-59
2024/01/20 12:35:37;;;;;;;5.03;3.60;;;5.90;25.30;;;;;;5057252;28;20813;-59
2024/01/20 12:38:04;;;;;;;4.60;2.90;;;5.80;26.30;;;;;;5052234;28;20265;-59
2024/01/20 12:40:30;;;;;;;4.27;3.40;;;5.90;26.40;;;;;;5053187;28;20238;-58
2024/01/20 12:42:57;;;;;;;3.73;3.43;;;5.90;26.50;;;;;;5061985;28;20211;-61
2024/01/20 12:45:23;;;;;;;4.23;2.90;;;5.70;26.40;;;;;;5053860;28;20266;-61